KSLG/SLG METAR and TAF weather

Enter ICAO airport designator
Station Type Date Time Source
KSLG METAR 2022/06/30 11:56 UTC NOAA

KSLG 301156Z AUTO 09003KT 10SM CLR 16/13 A3015 RMK AO2 SLP197 6//// 7//// T01560133 10194 20150 53002


Station Type Date Time Source
KSLG Decoded METAR 2022/06/30 11:56 UTC NOAA

Siloam Springs, Smith Field Airport, AR, United States (KSLG) 36-12N 094-29W
Jun 30, 2022 - 07:56 AM EDT / 2022.06.30 1156 UTC
Wind: from the E (090 degrees) at 3 MPH (3 KT):0
Visibility: 10 mile(s):0
Sky conditions: clear
Temperature: 60.1 F (15.6 C)
Dew Point: 55.9 F (13.3 C)
Relative Humidity: 86%
Pressure (altimeter): 30.15 in. Hg (1020 hPa)
Pressure tendency: 0.01 inches (0.2 hPa) higher than three hours ago
ob: KSLG 301156Z AUTO 09003KT 10SM CLR 16/13 A3015 RMK AO2 SLP197 6//// 7//// T01560133 10194 20150 53002
cycle: 12

Station Type Date Time Source
KSLG TAF UTC NOAA

Error!

Example: see airport list